createdAt,value
2022-09-06T00:03:30.702Z,99.90
2022-09-06T00:08:49.471Z,99.90
2022-09-06T00:14:17.906Z,99.90
2022-09-06T00:25:00.314Z,99.90
2022-09-06T00:36:42.494Z,99.90
2022-09-06T00:42:16.792Z,99.90
2022-09-06T00:47:30.023Z,99.90
2022-09-06T00:58:12.089Z,99.90
2022-09-06T01:03:28.176Z,99.90
2022-09-06T01:08:57.555Z,99.90
2022-09-06T01:15:24.687Z,99.90
2022-09-06T01:20:47.322Z,99.90
2022-09-06T01:26:20.938Z,99.90
2022-09-06T01:31:45.803Z,99.90
2022-09-06T01:37:09.009Z,99.90
2022-09-06T01:48:30.485Z,99.90
2022-09-06T01:54:37.290Z,99.90
2022-09-06T02:00:18.695Z,99.90
2022-09-06T02:05:33.193Z,99.90
2022-09-06T02:10:43.293Z,99.90
2022-09-06T02:15:58.625Z,99.90
2022-09-06T02:21:20.472Z,99.90
2022-09-06T02:26:30.770Z,99.90
2022-09-06T02:31:56.731Z,99.90
2022-09-06T02:37:10.488Z,99.90
2022-09-06T02:42:18.101Z,99.90
2022-09-06T02:47:48.803Z,99.90
2022-09-06T02:53:13.729Z,99.90
2022-09-06T02:58:26.455Z,99.90
2022-09-06T03:04:03.667Z,99.90
2022-09-06T03:49:51.012Z,99.90
2022-09-06T03:55:17.636Z,99.90
2022-09-06T04:12:17.545Z,99.90
2022-09-06T04:17:36.519Z,99.90
2022-09-06T05:26:25.946Z,99.90
2022-09-06T05:31:31.177Z,99.90
2022-09-06T05:36:57.856Z,99.90
2022-09-06T05:42:23.993Z,99.90
2022-09-06T05:47:43.129Z,99.90
2022-09-06T06:44:44.572Z,99.90
2022-09-06T07:53:34.171Z,99.90
2022-09-06T07:58:43.726Z,99.90
2022-09-06T08:03:49.526Z,99.90
2022-09-06T08:09:02.273Z,99.90
2022-09-06T08:14:09.123Z,99.90
2022-09-06T08:19:20.478Z,99.90
2022-09-06T08:24:38.729Z,99.90
2022-09-06T08:29:49.585Z,99.90
2022-09-06T08:34:59.674Z,99.90
2022-09-06T08:40:14.607Z,99.90
2022-09-06T08:45:30.976Z,99.90
2022-09-06T08:50:37.843Z,99.90
2022-09-06T08:55:44.905Z,99.90
2022-09-06T09:01:16.676Z,99.90
2022-09-06T09:06:36.069Z,99.90
2022-09-06T09:11:45.497Z,99.90
2022-09-06T09:16:53.648Z,95.30
2022-09-06T09:22:06.334Z,97.60
2022-09-06T09:27:12.936Z,94.60
2022-09-06T09:32:18.936Z,91.60
2022-09-06T09:37:46.060Z,91.30
2022-09-06T09:43:13.458Z,91.90
2022-09-06T09:48:32.204Z,91.70
2022-09-06T09:53:43.103Z,91.90
2022-09-06T09:59:00.158Z,81.00
2022-09-06T10:09:53.715Z,79.30
2022-09-06T10:15:32.948Z,76.00
2022-09-06T10:20:39.668Z,79.50
2022-09-06T10:25:50.136Z,81.70
2022-09-06T10:31:11.299Z,79.90
2022-09-06T10:36:14.965Z,79.90
2022-09-06T10:41:44.908Z,77.70
2022-09-06T10:46:55.749Z,76.30
2022-09-06T11:08:46.406Z,71.80
2022-09-06T11:13:51.954Z,75.00
2022-09-06T11:19:04.843Z,75.30
2022-09-06T11:24:26.856Z,73.00
2022-09-06T11:29:32.991Z,70.70
2022-09-06T11:34:45.759Z,71.10
2022-09-06T11:45:44.342Z,69.60
2022-09-06T11:51:03.921Z,67.20
2022-09-06T11:56:25.742Z,65.90
2022-09-06T12:01:41.565Z,65.50
2022-09-06T12:07:14.502Z,64.10
2022-09-06T12:12:39.826Z,66.50
2022-09-06T12:17:53.155Z,68.50
2022-09-06T12:23:07.505Z,65.10
2022-09-06T12:28:15.934Z,64.50
2022-09-06T12:33:23.635Z,62.20
2022-09-06T12:38:30.949Z,62.00
2022-09-06T12:43:36.210Z,63.10
2022-09-06T12:48:47.434Z,59.50
2022-09-06T12:53:56.839Z,59.60
2022-09-06T12:59:14.501Z,62.30
2022-09-06T13:04:36.508Z,56.40
2022-09-06T13:09:51.847Z,59.50
2022-09-06T13:14:55.874Z,58.50
2022-09-06T13:19:59.930Z,60.40
2022-09-06T13:25:05.758Z,59.30
2022-09-06T13:30:23.475Z,58.50
2022-09-06T13:35:29.144Z,59.70
2022-09-06T13:41:10.697Z,56.90
2022-09-06T13:46:30.831Z,57.30
2022-09-06T13:51:36.910Z,55.60
2022-09-06T13:56:48.867Z,57.20
2022-09-06T14:02:06.650Z,56.20
2022-09-06T14:07:12.479Z,58.90
2022-09-06T14:12:24.616Z,59.90
2022-09-06T14:17:28.242Z,57.10
2022-09-06T14:22:34.657Z,57.50
2022-09-06T14:27:46.615Z,57.90
2022-09-06T14:32:51.361Z,58.30
2022-09-06T14:37:58.330Z,57.30
2022-09-06T14:43:10.084Z,58.70
2022-09-06T14:48:15.118Z,58.80
2022-09-06T14:53:40.114Z,58.60
2022-09-06T14:58:51.581Z,57.90
2022-09-06T15:03:57.558Z,58.30
2022-09-06T15:09:01.887Z,57.50
2022-09-06T15:14:13.377Z,57.90
2022-09-06T15:19:17.009Z,55.80
2022-09-06T15:24:21.125Z,55.50
2022-09-06T15:29:30.408Z,56.10
2022-09-06T15:34:35.913Z,56.90
2022-09-06T15:39:39.795Z,57.50
2022-09-06T15:44:49.951Z,57.40
2022-09-06T15:49:56.889Z,57.00
2022-09-06T15:55:20.883Z,56.80
2022-09-06T16:00:26.789Z,56.70
2022-09-06T16:10:57.189Z,57.70
2022-09-06T16:16:06.370Z,58.10
2022-09-06T16:21:16.769Z,58.00
2022-09-06T16:26:21.838Z,59.90
2022-09-06T16:31:27.613Z,58.90
2022-09-06T16:36:33.286Z,60.40
2022-09-06T16:41:45.330Z,61.40
2022-09-06T16:46:54.127Z,63.30
2022-09-06T16:52:18.328Z,63.10
2022-09-06T16:57:22.710Z,59.70
2022-09-06T17:02:31.521Z,59.30
2022-09-06T17:07:41.077Z,60.10
2022-09-06T17:12:48.987Z,58.50
2022-09-06T17:17:57.755Z,60.20
2022-09-06T17:23:06.726Z,62.40
2022-09-06T17:28:11.922Z,63.80
2022-09-06T17:33:20.478Z,63.80
2022-09-06T17:38:28.771Z,63.60
2022-09-06T17:43:35.780Z,66.20
2022-09-06T17:48:42.790Z,67.00
2022-09-06T17:53:47.496Z,69.50
2022-09-06T17:58:55.718Z,72.30
2022-09-06T18:04:01.598Z,73.60
2022-09-06T18:09:09.864Z,76.00
2022-09-06T18:14:21.520Z,77.10
2022-09-06T18:19:32.682Z,78.30
2022-09-06T18:24:58.340Z,78.80
2022-09-06T18:30:14.731Z,80.00
2022-09-06T18:35:24.452Z,80.80
2022-09-06T18:40:36.114Z,79.50
2022-09-06T18:45:51.663Z,79.70
2022-09-06T18:51:12.855Z,80.80
2022-09-06T18:56:26.730Z,82.50
2022-09-06T19:01:33.460Z,83.60
2022-09-06T19:06:49.321Z,85.00
2022-09-06T19:11:55.799Z,84.40
2022-09-06T19:17:00.196Z,84.20
2022-09-06T19:22:11.472Z,85.00
2022-09-06T19:27:21.545Z,85.30
2022-09-06T19:32:32.481Z,85.40
2022-09-06T19:37:41.326Z,79.10
2022-09-06T19:42:45.472Z,77.30
2022-09-06T19:47:54.340Z,76.90
2022-09-06T19:53:07.393Z,79.20
2022-09-06T19:58:17.203Z,78.60
2022-09-06T20:03:24.765Z,79.00
2022-09-06T20:08:31.181Z,77.60
2022-09-06T20:13:37.839Z,77.90
2022-09-06T20:18:42.138Z,77.70
2022-09-06T20:23:56.538Z,76.60
2022-09-06T20:29:09.909Z,75.90
2022-09-06T20:34:21.105Z,75.40
2022-09-06T20:39:26.405Z,76.90
2022-09-06T20:44:31.363Z,77.50
2022-09-06T20:49:37.841Z,77.70
2022-09-06T20:54:45.168Z,79.20
2022-09-06T20:59:50.387Z,79.80
2022-09-06T21:04:54.983Z,80.30
2022-09-06T21:10:02.793Z,81.60
2022-09-06T21:15:07.555Z,82.40
2022-09-06T21:20:20.830Z,83.50
2022-09-06T21:25:36.613Z,85.20
2022-09-06T21:30:40.339Z,87.00
2022-09-06T21:35:44.083Z,87.30
2022-09-06T21:40:49.825Z,87.70
2022-09-06T21:45:58.900Z,87.40
2022-09-06T21:51:05.480Z,86.90
2022-09-06T21:56:12.734Z,87.00
2022-09-06T22:01:16.732Z,86.20
2022-09-06T22:06:21.358Z,86.20
2022-09-06T22:11:28.941Z,86.60
2022-09-06T22:16:34.304Z,87.50
2022-09-06T22:21:42.989Z,86.10
2022-09-06T22:26:51.451Z,85.60
2022-09-06T22:31:59.901Z,89.20
2022-09-06T22:37:06.777Z,89.50
2022-09-06T22:43:24.923Z,94.80
2022-09-06T22:48:57.356Z,99.90
2022-09-06T22:54:17.420Z,99.90
2022-09-06T22:59:24.692Z,99.90
2022-09-06T23:04:35.327Z,99.90
2022-09-06T23:16:29.221Z,99.90
2022-09-06T23:22:09.914Z,99.90
2022-09-06T23:27:20.706Z,99.90
2022-09-06T23:32:31.702Z,99.90
2022-09-06T23:37:56.005Z,99.90
2022-09-06T23:43:32.487Z,99.90
2022-09-06T23:48:54.891Z,99.90
2022-09-06T23:54:05.842Z,99.90
2022-09-06T23:59:17.762Z,99.90
